Wind Surf — C6IO6 — position and weather

sailwx.info

Track history (hours):
 
Tides and Currents Weather Stations Pressure Air Temp Water Temp Dewpoint Dewpoint Depression Visibility Wind Speed Wind Dir Waves Ship Positions

Wind Surf

Operator: Holland America Line

Last reported at 2019-Jun-16 02:24 UTC. Time now 2019-Jun-17 18:40 UTC.
Position N 43°33' E 015°35'.

Length 187 m; draft 5.5 m.

Type: Passenger vessel. MMSI: 309242000.

Date/timePositionNaut miles runAvg speedWind from/ knotsBaromVisibWave heightAir tempDewpointWater temp
2019-Jun-16 02:24N 43°33' E 015°35'7910.5
2019-Jun-15 18:51N 44°26' E 014°13'410.4
2019-Jun-15 18:30N 44°28' E 014°09'510.4
2019-Jun-15 18:00N 44°32' E 014°04'510.5
2019-Jun-15 17:30N 44°36' E 013°59'510.4
2019-Jun-15 17:01N 44°39' E 013°53'510.2
2019-Jun-15 16:30N 44°43' E 013°48'510.2
2019-Jun-15 16:01N 44°47' E 013°44'510.4
2019-Jun-15 15:31N 44°51' E 013°40'510.3
2019-Jun-15 15:01N 44°56' E 013°36'510.3
2019-Jun-15 14:30N 45°01' E 013°35'5 9.6
2019-Jun-15 14:01N 45°05' E 013°37'1 1.8
2019-Jun-15 13:31N 45°05' E 013°38'0 0.0
2019-Jun-15 13:00N 45°05' E 013°38'0 0.0
2019-Jun-15 12:28N 45°05' E 013°38'0 0.1
2019-Jun-15 11:55N 45°05' E 013°38'0 0.0
2019-Jun-15 11:28N 45°05' E 013°38'0 0.0
2019-Jun-15 10:55N 45°05' E 013°38'0 0.0
2019-Jun-15 10:28N 45°05' E 013°38'0 0.0
2019-Jun-15 09:58N 45°05' E 013°38'0 0.0
2019-Jun-15 09:28N 45°05' E 013°38'0 0.2
2019-Jun-15 08:58N 45°05' E 013°38'0 0.0
2019-Jun-15 08:28N 45°05' E 013°38'0 0.1
2019-Jun-15 07:58N 45°05' E 013°38'0 0.0
2019-Jun-15 07:28N 45°05' E 013°38'0 0.1
2019-Jun-15 06:58N 45°05' E 013°38'0 0.1
2019-Jun-15 06:28N 45°05' E 013°38'0 0.1
2019-Jun-15 05:55N 45°05' E 013°38'0 0.7
2019-Jun-15 05:30N 45°05' E 013°38'3 6.5
2019-Jun-15 05:00N 45°05' E 013°33'3 5.7
2019-Jun-15 04:30N 45°05' E 013°29'3 6.4
2019-Jun-15 04:00N 45°05' E 013°24'3 5.9
2019-Jun-15 03:30N 45°05' E 013°20'3 5.7
2019-Jun-15 03:00N 45°05' E 013°16'3 5.5
2019-Jun-15 02:30N 45°04' E 013°12'3 5.4
2019-Jun-15 02:00N 45°03' E 013°09'3 5.5
2019-Jun-15 01:30N 45°02' E 013°05'3 5.3
2019-Jun-15 01:00N 45°01' E 013°02'3 5.7
2019-Jun-15 00:30N 44°59' E 012°59'3 6.3
2019-Jun-15 00:00N 44°56' E 012°57'3 5.2
2019-Jun-14 23:30N 44°55' E 012°54'3 5.5
2019-Jun-14 23:00N 44°56' E 012°50'3 5.6
2019-Jun-14 22:30N 44°58' E 012°48'3 5.9
2019-Jun-14 22:00N 45°01' E 012°47'3 6.0
2019-Jun-14 21:30N 45°04' E 012°45'3 6.5
2019-Jun-14 21:00N 45°07' E 012°42'3 6.4
2019-Jun-14 20:30N 45°09' E 012°39'3 6.2
2019-Jun-14 20:00N 45°10' E 012°35'3 6.1
2019-Jun-14 19:30N 45°12' E 012°31'3 5.8
2019-Jun-14 19:00N 45°15' E 012°30'3 6.7
2019-Jun-14 18:30N 45°18' E 012°30'3 6.4
2019-Jun-14 18:00N 45°21' E 012°30'3 6.2
2019-Jun-14 17:30N 45°24' E 012°28'4 7.6
2019-Jun-14 17:00N 45°26' E 012°24'2 4.4
2019-Jun-14 16:30N 45°26' E 012°21'1 2.7
2019-Jun-14 16:01N 45°26' E 012°19'0 0.0
2019-Jun-14 15:31N 45°26' E 012°19'0 0.0
2019-Jun-14 15:00N 45°26' E 012°19'0 0.0
2019-Jun-14 14:30N 45°26' E 012°19'0 0.0
2019-Jun-14 14:00N 45°26' E 012°19'0 0.0
2019-Jun-14 13:30N 45°26' E 012°19'0 0.0
2019-Jun-14 13:01N 45°26' E 012°19'0 0.0
2019-Jun-14 12:31N 45°26' E 012°19'0 0.0
2019-Jun-14 12:01N 45°26' E 012°19'0 0.0
2019-Jun-14 11:30N 45°26' E 012°19'0 0.0
2019-Jun-14 11:01N 45°26' E 012°19'0 0.0
2019-Jun-14 10:30N 45°26' E 012°19'0 0.0
2019-Jun-14 10:00N 45°26' E 012°19'0 0.0
2019-Jun-14 09:30N 45°26' E 012°19'0 0.0
2019-Jun-14 09:00N 45°26' E 012°19'0 0.0
2019-Jun-14 08:30N 45°26' E 012°19'0 0.0
2019-Jun-14 08:00N 45°26' E 012°19'0 0.0
2019-Jun-14 07:30N 45°26' E 012°19'0 0.0
2019-Jun-14 07:00N 45°26' E 012°19'0 0.0
2019-Jun-14 06:30N 45°26' E 012°19'0 0.0
2019-Jun-14 06:01N 45°26' E 012°19'0 0.0
2019-Jun-14 05:30N 45°26' E 012°19'0 0.1
2019-Jun-14 05:00N 45°26' E 012°19'1 1.8
2019-Jun-14 04:30N 45°26' E 012°20'2 4.3
2019-Jun-14 04:00N 45°26' E 012°23'4 7.6
2019-Jun-14 03:30N 45°24' E 012°28'3 6.5
2019-Jun-14 03:00N 45°23' E 012°32'3 6.2
2019-Jun-14 02:30N 45°21' E 012°36'3 6.3
2019-Jun-14 01:59N 45°20' E 012°40'3 6.3
2019-Jun-14 01:30N 45°18' E 012°44'3 6.4
2019-Jun-14 01:00N 45°17' E 012°48'3 6.3
2019-Jun-14 00:30N 45°15' E 012°52'3 5.0
2019-Jun-13 23:59N 45°14' E 012°55'2 3.6
2019-Jun-13 23:30N 45°15' E 012°56'3 5.2
2019-Jun-13 23:00N 45°18' E 012°55'2 4.0
2019-Jun-13 22:30N 45°20' E 012°56'3 5.1
2019-Jun-13 22:00N 45°21' E 012°59'2 5.0
2019-Jun-13 21:30N 45°22' E 013°03'3 5.1
2019-Jun-13 21:00N 45°23' E 013°06'3 5.0
2019-Jun-13 20:30N 45°24' E 013°09'2 5.0
2019-Jun-13 20:00N 45°24' E 013°13'2 4.5
2019-Jun-13 19:30N 45°26' E 013°15'2 4.4
2019-Jun-13 19:01N 45°28' E 013°16'1 2.9
2019-Jun-13 18:30N 45°28' E 013°18'3 5.5
2019-Jun-13 18:00N 45°27' E 013°21'2 4.8
2019-Jun-13 17:30N 45°28' E 013°23'3 5.4
2019-Jun-13 17:00N 45°30' E 013°25'3 5.5
2019-Jun-13 16:30N 45°32' E 013°29'3 5.9
2019-Jun-13 16:00N 45°31' E 013°33'1 1.1
2019-Jun-13 15:30N 45°32' E 013°33'0 0.0
2019-Jun-13 15:00N 45°32' E 013°33'0 0.0
2019-Jun-13 14:31N 45°32' E 013°33'0 0.0
2019-Jun-13 14:01N 45°32' E 013°33'0 0.0
2019-Jun-13 13:31N 45°32' E 013°33'0 0.0
2019-Jun-13 12:55N 45°32' E 013°33'0 0.0
2019-Jun-13 12:28N 45°32' E 013°33'0 0.0
2019-Jun-13 11:54N 45°32' E 013°33'0 0.0
2019-Jun-13 11:30N 45°32' E 013°33'0 0.0
2019-Jun-13 11:00N 45°32' E 013°33'0 0.0
2019-Jun-13 10:31N 45°32' E 013°33'0 0.0
2019-Jun-13 10:01N 45°32' E 013°33'0 0.0
2019-Jun-13 09:30N 45°32' E 013°33'0 0.1
2019-Jun-13 09:01N 45°32' E 013°33'0 0.1
2019-Jun-13 08:30N 45°32' E 013°33'1 1.9
2019-Jun-13 08:00N 45°31' E 013°32'4 8.3
2019-Jun-13 07:30N 45°32' E 013°26'4 8.4
2019-Jun-13 07:00N 45°29' E 013°22'4 8.5
2019-Jun-13 06:30N 45°25' E 013°22'4 8.7
2019-Jun-13 06:00N 45°20' E 013°22'5 9.7
2019-Jun-13 05:30N 45°16' E 013°24'510.5
2019-Jun-13 05:00N 45°11' E 013°25'510.3
2019-Jun-13 04:30N 45°06' E 013°27'510.3
2019-Jun-13 04:00N 45°01' E 013°30'510.2
2019-Jun-13 03:30N 44°57' E 013°34'510.0
2019-Jun-13 03:00N 44°52' E 013°38'6 9.9
2019-Jun-13 02:25N 44°47' E 013°42'510.1
2019-Jun-13 01:58N 44°44' E 013°45'510.7
2019-Jun-13 01:30N 44°40' E 013°50'511.0
2019-Jun-13 01:00N 44°36' E 013°55'510.7
2019-Jun-13 00:30N 44°32' E 014°01'510.5
2019-Jun-13 00:00N 44°29' E 014°06'510.5
2019-Jun-12 23:30N 44°25' E 014°12'1610.5
2019-Jun-12 21:58N 44°14' E 014°28'  
2019-Jun-07 16:34N 39°20' E 017°57'94 8.6
2019-Jun-07 05:39N 38°13' E 016°34'2 8.6
2019-Jun-07 05:26N 38°11' E 016°32'4 8.8
2019-Jun-07 04:56N 38°08' E 016°28'29 8.7
2019-Jun-07 01:37N 37°49' E 016°02'1 8.6
2019-Jun-07 01:30N 37°48' E 016°01'4 8.6
2019-Jun-07 01:00N 37°46' E 015°56'4 8.4
2019-Jun-07 00:31N 37°44' E 015°51'4 8.2
2019-Jun-07 00:00N 37°42' E 015°46'4 8.1
2019-Jun-06 23:31N 37°40' E 015°42'4 8.1
2019-Jun-06 23:00N 37°39' E 015°37'4 8.1
2019-Jun-06 22:31N 37°37' E 015°33'4 8.0
2019-Jun-06 22:01N 37°35' E 015°28'5 9.3
2019-Jun-06 21:29N 37°33' E 015°23'10 0.6
2019-Jun-06 03:45N 37°43' E 015°20'2 9.2
2019-Jun-06 03:30N 37°45' E 015°21'4 8.1
2019-Jun-06 02:59N 37°48' E 015°24'4 8.3
2019-Jun-06 02:30N 37°52' E 015°26'  
Track history (hours):
 
Tides and Currents Weather Stations Pressure Air Temp Water Temp Dewpoint Dewpoint Depression Visibility Wind Speed Wind Dir Waves Ship Positions

Wind Surf

Operator: Holland America Line

Last reported at 2019-Jun-16 02:24 UTC. Time now 2019-Jun-17 18:40 UTC.
Position N 43°33' E 015°35'.

Length 187 m; draft 5.5 m.

Type: Passenger vessel. MMSI: 309242000.

Date/timePositionNaut miles runAvg speedWind from/ knotsBaromVisibWave heightAir tempDewpointWater temp
2019-Jun-16 02:24N 43°33' E 015°35'7910.5
2019-Jun-15 18:51N 44°26' E 014°13'410.4
2019-Jun-15 18:30N 44°28' E 014°09'510.4
2019-Jun-15 18:00N 44°32' E 014°04'510.5
2019-Jun-15 17:30N 44°36' E 013°59'510.4
2019-Jun-15 17:01N 44°39' E 013°53'510.2
2019-Jun-15 16:30N 44°43' E 013°48'510.2
2019-Jun-15 16:01N 44°47' E 013°44'510.4
2019-Jun-15 15:31N 44°51' E 013°40'510.3
2019-Jun-15 15:01N 44°56' E 013°36'510.3
2019-Jun-15 14:30N 45°01' E 013°35'5 9.6
2019-Jun-15 14:01N 45°05' E 013°37'1 1.8
2019-Jun-15 13:31N 45°05' E 013°38'0 0.0
2019-Jun-15 13:00N 45°05' E 013°38'0 0.0
2019-Jun-15 12:28N 45°05' E 013°38'0 0.1
2019-Jun-15 11:55N 45°05' E 013°38'0 0.0
2019-Jun-15 11:28N 45°05' E 013°38'0 0.0
2019-Jun-15 10:55N 45°05' E 013°38'0 0.0
2019-Jun-15 10:28N 45°05' E 013°38'0 0.0
2019-Jun-15 09:58N 45°05' E 013°38'0 0.0
2019-Jun-15 09:28N 45°05' E 013°38'0 0.2
2019-Jun-15 08:58N 45°05' E 013°38'0 0.0
2019-Jun-15 08:28N 45°05' E 013°38'0 0.1
2019-Jun-15 07:58N 45°05' E 013°38'0 0.0
2019-Jun-15 07:28N 45°05' E 013°38'0 0.1
2019-Jun-15 06:58N 45°05' E 013°38'0 0.1
2019-Jun-15 06:28N 45°05' E 013°38'0 0.1
2019-Jun-15 05:55N 45°05' E 013°38'0 0.7
2019-Jun-15 05:30N 45°05' E 013°38'3 6.5
2019-Jun-15 05:00N 45°05' E 013°33'3 5.7
2019-Jun-15 04:30N 45°05' E 013°29'3 6.4
2019-Jun-15 04:00N 45°05' E 013°24'3 5.9
2019-Jun-15 03:30N 45°05' E 013°20'3 5.7
2019-Jun-15 03:00N 45°05' E 013°16'3 5.5
2019-Jun-15 02:30N 45°04' E 013°12'3 5.4
2019-Jun-15 02:00N 45°03' E 013°09'3 5.5
2019-Jun-15 01:30N 45°02' E 013°05'3 5.3
2019-Jun-15 01:00N 45°01' E 013°02'3 5.7
2019-Jun-15 00:30N 44°59' E 012°59'3 6.3
2019-Jun-15 00:00N 44°56' E 012°57'3 5.2
2019-Jun-14 23:30N 44°55' E 012°54'3 5.5
2019-Jun-14 23:00N 44°56' E 012°50'3 5.6
2019-Jun-14 22:30N 44°58' E 012°48'3 5.9
2019-Jun-14 22:00N 45°01' E 012°47'3 6.0
2019-Jun-14 21:30N 45°04' E 012°45'3 6.5
2019-Jun-14 21:00N 45°07' E 012°42'3 6.4
2019-Jun-14 20:30N 45°09' E 012°39'3 6.2
2019-Jun-14 20:00N 45°10' E 012°35'3 6.1
2019-Jun-14 19:30N 45°12' E 012°31'3 5.8
2019-Jun-14 19:00N 45°15' E 012°30'3 6.7
2019-Jun-14 18:30N 45°18' E 012°30'3 6.4
2019-Jun-14 18:00N 45°21' E 012°30'3 6.2
2019-Jun-14 17:30N 45°24' E 012°28'4 7.6
2019-Jun-14 17:00N 45°26' E 012°24'2 4.4
2019-Jun-14 16:30N 45°26' E 012°21'1 2.7
2019-Jun-14 16:01N 45°26' E 012°19'0 0.0
2019-Jun-14 15:31N 45°26' E 012°19'0 0.0
2019-Jun-14 15:00N 45°26' E 012°19'0 0.0
2019-Jun-14 14:30N 45°26' E 012°19'0 0.0
2019-Jun-14 14:00N 45°26' E 012°19'0 0.0
2019-Jun-14 13:30N 45°26' E 012°19'0 0.0
2019-Jun-14 13:01N 45°26' E 012°19'0 0.0
2019-Jun-14 12:31N 45°26' E 012°19'0 0.0
2019-Jun-14 12:01N 45°26' E 012°19'0 0.0
2019-Jun-14 11:30N 45°26' E 012°19'0 0.0
2019-Jun-14 11:01N 45°26' E 012°19'0 0.0
2019-Jun-14 10:30N 45°26' E 012°19'0 0.0
2019-Jun-14 10:00N 45°26' E 012°19'0 0.0
2019-Jun-14 09:30N 45°26' E 012°19'0 0.0
2019-Jun-14 09:00N 45°26' E 012°19'0 0.0
2019-Jun-14 08:30N 45°26' E 012°19'0 0.0
2019-Jun-14 08:00N 45°26' E 012°19'0 0.0
2019-Jun-14 07:30N 45°26' E 012°19'0 0.0
2019-Jun-14 07:00N 45°26' E 012°19'0 0.0
2019-Jun-14 06:30N 45°26' E 012°19'0 0.0
2019-Jun-14 06:01N 45°26' E 012°19'0 0.0
2019-Jun-14 05:30N 45°26' E 012°19'0 0.1
2019-Jun-14 05:00N 45°26' E 012°19'1 1.8
2019-Jun-14 04:30N 45°26' E 012°20'2 4.3
2019-Jun-14 04:00N 45°26' E 012°23'4 7.6
2019-Jun-14 03:30N 45°24' E 012°28'3 6.5
2019-Jun-14 03:00N 45°23' E 012°32'3 6.2
2019-Jun-14 02:30N 45°21' E 012°36'3 6.3
2019-Jun-14 01:59N 45°20' E 012°40'3 6.3
2019-Jun-14 01:30N 45°18' E 012°44'3 6.4
2019-Jun-14 01:00N 45°17' E 012°48'3 6.3
2019-Jun-14 00:30N 45°15' E 012°52'3 5.0
2019-Jun-13 23:59N 45°14' E 012°55'2 3.6
2019-Jun-13 23:30N 45°15' E 012°56'3 5.2
2019-Jun-13 23:00N 45°18' E 012°55'2 4.0
2019-Jun-13 22:30N 45°20' E 012°56'3 5.1
2019-Jun-13 22:00N 45°21' E 012°59'2 5.0
2019-Jun-13 21:30N 45°22' E 013°03'3 5.1
2019-Jun-13 21:00N 45°23' E 013°06'3 5.0
2019-Jun-13 20:30N 45°24' E 013°09'2 5.0
2019-Jun-13 20:00N 45°24' E 013°13'2 4.5
2019-Jun-13 19:30N 45°26' E 013°15'2 4.4
2019-Jun-13 19:01N 45°28' E 013°16'1 2.9
2019-Jun-13 18:30N 45°28' E 013°18'3 5.5
2019-Jun-13 18:00N 45°27' E 013°21'2 4.8
2019-Jun-13 17:30N 45°28' E 013°23'3 5.4
2019-Jun-13 17:00N 45°30' E 013°25'3 5.5
2019-Jun-13 16:30N 45°32' E 013°29'3 5.9
2019-Jun-13 16:00N 45°31' E 013°33'1 1.1
2019-Jun-13 15:30N 45°32' E 013°33'0 0.0
2019-Jun-13 15:00N 45°32' E 013°33'0 0.0
2019-Jun-13 14:31N 45°32' E 013°33'0 0.0
2019-Jun-13 14:01N 45°32' E 013°33'0 0.0
2019-Jun-13 13:31N 45°32' E 013°33'0 0.0
2019-Jun-13 12:55N 45°32' E 013°33'0 0.0
2019-Jun-13 12:28N 45°32' E 013°33'0 0.0
2019-Jun-13 11:54N 45°32' E 013°33'0 0.0
2019-Jun-13 11:30N 45°32' E 013°33'0 0.0
2019-Jun-13 11:00N 45°32' E 013°33'0 0.0
2019-Jun-13 10:31N 45°32' E 013°33'0 0.0
2019-Jun-13 10:01N 45°32' E 013°33'0 0.0
2019-Jun-13 09:30N 45°32' E 013°33'0 0.1
2019-Jun-13 09:01N 45°32' E 013°33'0 0.1
2019-Jun-13 08:30N 45°32' E 013°33'1 1.9
2019-Jun-13 08:00N 45°31' E 013°32'4 8.3
2019-Jun-13 07:30N 45°32' E 013°26'4 8.4
2019-Jun-13 07:00N 45°29' E 013°22'4 8.5
2019-Jun-13 06:30N 45°25' E 013°22'4 8.7
2019-Jun-13 06:00N 45°20' E 013°22'5 9.7
2019-Jun-13 05:30N 45°16' E 013°24'510.5
2019-Jun-13 05:00N 45°11' E 013°25'510.3
2019-Jun-13 04:30N 45°06' E 013°27'510.3
2019-Jun-13 04:00N 45°01' E 013°30'510.2
2019-Jun-13 03:30N 44°57' E 013°34'510.0
2019-Jun-13 03:00N 44°52' E 013°38'6 9.9
2019-Jun-13 02:25N 44°47' E 013°42'510.1
2019-Jun-13 01:58N 44°44' E 013°45'510.7
2019-Jun-13 01:30N 44°40' E 013°50'511.0
2019-Jun-13 01:00N 44°36' E 013°55'510.7
2019-Jun-13 00:30N 44°32' E 014°01'510.5
2019-Jun-13 00:00N 44°29' E 014°06'510.5
2019-Jun-12 23:30N 44°25' E 014°12'1610.5
2019-Jun-12 21:58N 44°14' E 014°28'  
2019-Jun-07 16:34N 39°20' E 017°57'94 8.6
2019-Jun-07 05:39N 38°13' E 016°34'2 8.6
2019-Jun-07 05:26N 38°11' E 016°32'4 8.8
2019-Jun-07 04:56N 38°08' E 016°28'29 8.7
2019-Jun-07 01:37N 37°49' E 016°02'1 8.6
2019-Jun-07 01:30N 37°48' E 016°01'4 8.6
2019-Jun-07 01:00N 37°46' E 015°56'4 8.4
2019-Jun-07 00:31N 37°44' E 015°51'4 8.2
2019-Jun-07 00:00N 37°42' E 015°46'4 8.1
2019-Jun-06 23:31N 37°40' E 015°42'4 8.1
2019-Jun-06 23:00N 37°39' E 015°37'4 8.1
2019-Jun-06 22:31N 37°37' E 015°33'4 8.0
2019-Jun-06 22:01N 37°35' E 015°28'5 9.3
2019-Jun-06 21:29N 37°33' E 015°23'10 0.6
2019-Jun-06 03:45N 37°43' E 015°20'2 9.2
2019-Jun-06 03:30N 37°45' E 015°21'4 8.1
2019-Jun-06 02:59N 37°48' E 015°24'4 8.3
2019-Jun-06 02:30N 37°52' E 015°26'  

Dump ship's entire track history